sensor_id;sensor_type;location;lat;lon;timestamp;temperature;humidity
5705;DHT22;2877;48.238;11.160;2023-03-21T00:01:58;6.40;99.90
5705;DHT22;2877;48.238;11.160;2023-03-21T00:04:25;6.50;99.90
5705;DHT22;2877;48.238;11.160;2023-03-21T00:06:52;6.50;99.90
5705;DHT22;2877;48.238;11.160;2023-03-21T00:09:17;6.60;99.90
5705;DHT22;2877;48.238;11.160;2023-03-21T00:11:43;6.60;99.90
5705;DHT22;2877;48.238;11.160;2023-03-21T00:14:08;6.60;99.90
5705;DHT22;2877;48.238;11.160;2023-03-21T00:16:38;6.60;99.90
5705;DHT22;2877;48.238;11.160;2023-03-21T00:19:04;6.60;99.90
5705;DHT22;2877;48.238;11.160;2023-03-21T00:21:34;6.60;99.90
5705;DHT22;2877;48.238;11.160;2023-03-21T00:24:03;6.60;99.90
5705;DHT22;2877;48.238;11.160;2023-03-21T00:26:29;6.70;99.90
5705;DHT22;2877;48.238;11.160;2023-03-21T00:28:56;6.70;99.90
5705;DHT22;2877;48.238;11.160;2023-03-21T00:31:21;6.70;99.90
5705;DHT22;2877;48.238;11.160;2023-03-21T00:33:47;6.70;99.90
5705;DHT22;2877;48.238;11.160;2023-03-21T00:36:12;6.70;99.90
5705;DHT22;2877;48.238;11.160;2023-03-21T00:38:38;6.70;99.90
5705;DHT22;2877;48.238;11.160;2023-03-21T00:41:05;6.70;99.90
5705;DHT22;2877;48.238;11.160;2023-03-21T00:43:31;6.70;99.90
5705;DHT22;2877;48.238;11.160;2023-03-21T00:45:57;6.70;99.90
5705;DHT22;2877;48.238;11.160;2023-03-21T00:48:24;6.70;99.90
5705;DHT22;2877;48.238;11.160;2023-03-21T00:50:52;6.70;99.90
5705;DHT22;2877;48.238;11.160;2023-03-21T00:53:18;6.70;99.90
5705;DHT22;2877;48.238;11.160;2023-03-21T00:55:44;6.70;99.90
5705;DHT22;2877;48.238;11.160;2023-03-21T00:58:09;6.70;99.90
5705;DHT22;2877;48.238;11.160;2023-03-21T01:00:36;6.80;99.90
5705;DHT22;2877;48.238;11.160;2023-03-21T01:03:03;6.80;99.90
5705;DHT22;2877;48.238;11.160;2023-03-21T01:05:58;6.80;99.90
5705;DHT22;2877;48.238;11.160;2023-03-21T01:08:33;6.80;99.90
5705;DHT22;2877;48.238;11.160;2023-03-21T01:11:02;6.70;99.90
5705;DHT22;2877;48.238;11.160;2023-03-21T01:13:28;6.70;99.90
5705;DHT22;2877;48.238;11.160;2023-03-21T01:15:55;6.70;99.90
5705;DHT22;2877;48.238;11.160;2023-03-21T01:18:24;6.70;99.90
5705;DHT22;2877;48.238;11.160;2023-03-21T01:20:52;6.70;99.90
5705;DHT22;2877;48.238;11.160;2023-03-21T01:23:18;6.60;99.90
5705;DHT22;2877;48.238;11.160;2023-03-21T01:25:43;6.60;99.90
5705;DHT22;2877;48.238;11.160;2023-03-21T01:28:11;6.60;99.90
5705;DHT22;2877;48.238;11.160;2023-03-21T01:30:36;6.60;99.90
5705;DHT22;2877;48.238;11.160;2023-03-21T01:33:02;6.60;99.90
5705;DHT22;2877;48.238;11.160;2023-03-21T01:35:28;6.60;99.90
5705;DHT22;2877;48.238;11.160;2023-03-21T01:37:53;6.60;99.90
5705;DHT22;2877;48.238;11.160;2023-03-21T01:40:25;6.60;99.90
5705;DHT22;2877;48.238;11.160;2023-03-21T01:42:51;6.60;99.90
5705;DHT22;2877;48.238;11.160;2023-03-21T01:48:20;6.50;99.90
5705;DHT22;2877;48.238;11.160;2023-03-21T01:50:48;6.40;99.90
5705;DHT22;2877;48.238;11.160;2023-03-21T01:53:14;6.30;99.90
5705;DHT22;2877;48.238;11.160;2023-03-21T01:55:41;6.20;99.90
5705;DHT22;2877;48.238;11.160;2023-03-21T01:58:08;6.10;99.90
5705;DHT22;2877;48.238;11.160;2023-03-21T02:00:35;6.10;99.90
5705;DHT22;2877;48.238;11.160;2023-03-21T02:03:05;6.00;99.90
5705;DHT22;2877;48.238;11.160;2023-03-21T02:05:40;6.00;99.90
5705;DHT22;2877;48.238;11.160;2023-03-21T02:08:08;5.90;99.90
5705;DHT22;2877;48.238;11.160;2023-03-21T02:10:34;5.90;99.90
5705;DHT22;2877;48.238;11.160;2023-03-21T02:13:03;5.90;99.90
5705;DHT22;2877;48.238;11.160;2023-03-21T02:15:35;5.90;99.90
5705;DHT22;2877;48.238;11.160;2023-03-21T02:21:02;6.00;99.90
5705;DHT22;2877;48.238;11.160;2023-03-21T02:32:58;6.20;99.90
5705;DHT22;2877;48.238;11.160;2023-03-21T02:38:05;6.20;99.90
5705;DHT22;2877;48.238;11.160;2023-03-21T02:40:52;6.30;99.90
5705;DHT22;2877;48.238;11.160;2023-03-21T02:43:36;6.40;99.90
5705;DHT22;2877;48.238;11.160;2023-03-21T02:46:13;6.40;99.90
5705;DHT22;2877;48.238;11.160;2023-03-21T02:48:50;6.40;99.90
5705;DHT22;2877;48.238;11.160;2023-03-21T02:51:21;6.40;99.90
5705;DHT22;2877;48.238;11.160;2023-03-21T02:53:52;6.40;99.90
5705;DHT22;2877;48.238;11.160;2023-03-21T02:56:20;6.50;99.90
5705;DHT22;2877;48.238;11.160;2023-03-21T02:58:47;6.50;99.90
5705;DHT22;2877;48.238;11.160;2023-03-21T03:01:13;6.50;99.90
5705;DHT22;2877;48.238;11.160;2023-03-21T03:03:39;6.50;99.90
5705;DHT22;2877;48.238;11.160;2023-03-21T03:06:16;6.50;99.90
5705;DHT22;2877;48.238;11.160;2023-03-21T03:09:29;6.60;99.90
5705;DHT22;2877;48.238;11.160;2023-03-21T03:11:54;6.60;99.90
5705;DHT22;2877;48.238;11.160;2023-03-21T03:15:01;6.70;99.90
5705;DHT22;2877;48.238;11.160;2023-03-21T03:20:44;6.70;99.90
5705;DHT22;2877;48.238;11.160;2023-03-21T03:25:43;6.70;99.90
5705;DHT22;2877;48.238;11.160;2023-03-21T03:28:15;6.70;99.90
5705;DHT22;2877;48.238;11.160;2023-03-21T03:30:42;6.70;99.90
5705;DHT22;2877;48.238;11.160;2023-03-21T03:33:09;6.70;99.90
5705;DHT22;2877;48.238;11.160;2023-03-21T03:35:35;6.70;99.90
5705;DHT22;2877;48.238;11.160;2023-03-21T03:38:04;6.70;99.90
5705;DHT22;2877;48.238;11.160;2023-03-21T03:40:39;6.70;99.90
5705;DHT22;2877;48.238;11.160;2023-03-21T03:43:14;6.70;99.90
5705;DHT22;2877;48.238;11.160;2023-03-21T03:45:49;6.70;99.90
5705;DHT22;2877;48.238;11.160;2023-03-21T03:50:49;6.70;99.90
5705;DHT22;2877;48.238;11.160;2023-03-21T03:55:58;6.70;99.90
5705;DHT22;2877;48.238;11.160;2023-03-21T03:58:25;6.70;99.90
5705;DHT22;2877;48.238;11.160;2023-03-21T04:00:53;6.60;99.90
5705;DHT22;2877;48.238;11.160;2023-03-21T04:03:19;6.70;99.90
5705;DHT22;2877;48.238;11.160;2023-03-21T04:05:45;6.60;99.90
5705;DHT22;2877;48.238;11.160;2023-03-21T04:08:11;6.60;99.90
5705;DHT22;2877;48.238;11.160;2023-03-21T04:10:39;6.60;99.90
5705;DHT22;2877;48.238;11.160;2023-03-21T04:13:04;6.60;99.90
5705;DHT22;2877;48.238;11.160;2023-03-21T04:15:30;6.60;99.90
5705;DHT22;2877;48.238;11.160;2023-03-21T04:17:55;6.60;99.90
5705;DHT22;2877;48.238;11.160;2023-03-21T04:20:21;6.60;99.90
5705;DHT22;2877;48.238;11.160;2023-03-21T04:22:47;6.60;99.90
5705;DHT22;2877;48.238;11.160;2023-03-21T04:25:13;6.60;99.90
5705;DHT22;2877;48.238;11.160;2023-03-21T04:27:38;6.50;99.90
5705;DHT22;2877;48.238;11.160;2023-03-21T04:30:04;6.50;99.90
5705;DHT22;2877;48.238;11.160;2023-03-21T04:32:32;6.50;99.90
5705;DHT22;2877;48.238;11.160;2023-03-21T04:34:58;6.50;99.90
5705;DHT22;2877;48.238;11.160;2023-03-21T04:37:24;6.50;99.90
5705;DHT22;2877;48.238;11.160;2023-03-21T04:39:52;6.40;99.90
5705;DHT22;2877;48.238;11.160;2023-03-21T04:42:17;6.40;99.90
5705;DHT22;2877;48.238;11.160;2023-03-21T04:44:44;6.40;99.90
5705;DHT22;2877;48.238;11.160;2023-03-21T04:47:10;6.40;99.90
5705;DHT22;2877;48.238;11.160;2023-03-21T04:49:37;6.40;99.90
5705;DHT22;2877;48.238;11.160;2023-03-21T04:52:04;6.30;99.90
5705;DHT22;2877;48.238;11.160;2023-03-21T04:54:29;6.30;99.90
5705;DHT22;2877;48.238;11.160;2023-03-21T04:56:57;6.40;99.90
5705;DHT22;2877;48.238;11.160;2023-03-21T04:59:22;6.40;99.90
5705;DHT22;2877;48.238;11.160;2023-03-21T05:01:48;6.40;99.90
5705;DHT22;2877;48.238;11.160;2023-03-21T05:04:14;6.40;99.90
5705;DHT22;2877;48.238;11.160;2023-03-21T05:06:41;6.40;99.90
5705;DHT22;2877;48.238;11.160;2023-03-21T05:09:07;6.50;99.90
5705;DHT22;2877;48.238;11.160;2023-03-21T05:11:35;6.40;99.90
5705;DHT22;2877;48.238;11.160;2023-03-21T05:14:03;6.50;99.90
5705;DHT22;2877;48.238;11.160;2023-03-21T05:16:28;6.50;99.90
5705;DHT22;2877;48.238;11.160;2023-03-21T05:18:56;6.50;99.90
5705;DHT22;2877;48.238;11.160;2023-03-21T05:21:24;6.50;99.90
5705;DHT22;2877;48.238;11.160;2023-03-21T05:23:53;6.50;99.90
5705;DHT22;2877;48.238;11.160;2023-03-21T05:26:21;6.50;99.90
5705;DHT22;2877;48.238;11.160;2023-03-21T05:28:47;6.50;99.90
5705;DHT22;2877;48.238;11.160;2023-03-21T05:31:15;6.50;99.90
5705;DHT22;2877;48.238;11.160;2023-03-21T05:33:42;6.50;99.90
5705;DHT22;2877;48.238;11.160;2023-03-21T05:36:08;6.50;99.90
5705;DHT22;2877;48.238;11.160;2023-03-21T05:38:34;6.50;99.90
5705;DHT22;2877;48.238;11.160;2023-03-21T05:41:00;6.50;99.90
5705;DHT22;2877;48.238;11.160;2023-03-21T05:43:25;6.50;99.90
5705;DHT22;2877;48.238;11.160;2023-03-21T05:45:51;6.60;99.90
5705;DHT22;2877;48.238;11.160;2023-03-21T05:48:17;6.60;99.90
5705;DHT22;2877;48.238;11.160;2023-03-21T05:50:43;6.60;99.90
5705;DHT22;2877;48.238;11.160;2023-03-21T05:53:08;6.70;99.90
5705;DHT22;2877;48.238;11.160;2023-03-21T05:55:35;6.80;99.90
5705;DHT22;2877;48.238;11.160;2023-03-21T05:58:01;6.80;99.90
5705;DHT22;2877;48.238;11.160;2023-03-21T06:00:26;6.90;99.90
5705;DHT22;2877;48.238;11.160;2023-03-21T06:02:52;6.90;99.90
5705;DHT22;2877;48.238;11.160;2023-03-21T06:05:18;6.90;99.90
5705;DHT22;2877;48.238;11.160;2023-03-21T06:07:43;6.90;99.90
5705;DHT22;2877;48.238;11.160;2023-03-21T06:10:09;6.90;99.90
5705;DHT22;2877;48.238;11.160;2023-03-21T06:12:35;7.00;99.90
5705;DHT22;2877;48.238;11.160;2023-03-21T06:15:02;7.00;99.90
5705;DHT22;2877;48.238;11.160;2023-03-21T06:17:29;7.10;99.90
5705;DHT22;2877;48.238;11.160;2023-03-21T06:19:55;7.10;99.90
5705;DHT22;2877;48.238;11.160;2023-03-21T06:22:21;7.10;99.90
5705;DHT22;2877;48.238;11.160;2023-03-21T06:24:46;7.20;99.90
5705;DHT22;2877;48.238;11.160;2023-03-21T06:27:12;7.20;99.90
5705;DHT22;2877;48.238;11.160;2023-03-21T06:29:38;7.20;99.90
5705;DHT22;2877;48.238;11.160;2023-03-21T06:32:04;7.30;99.90
5705;DHT22;2877;48.238;11.160;2023-03-21T06:34:31;7.40;99.90
5705;DHT22;2877;48.238;11.160;2023-03-21T06:36:57;7.40;99.90
5705;DHT22;2877;48.238;11.160;2023-03-21T06:39:23;7.40;99.90
5705;DHT22;2877;48.238;11.160;2023-03-21T06:41:48;7.40;99.90
5705;DHT22;2877;48.238;11.160;2023-03-21T06:44:14;7.50;99.90
5705;DHT22;2877;48.238;11.160;2023-03-21T06:46:39;7.50;99.90
5705;DHT22;2877;48.238;11.160;2023-03-21T06:49:05;7.60;99.90
5705;DHT22;2877;48.238;11.160;2023-03-21T06:51:31;7.70;99.90
5705;DHT22;2877;48.238;11.160;2023-03-21T06:53:56;7.80;99.90
5705;DHT22;2877;48.238;11.160;2023-03-21T06:56:22;7.80;99.90
5705;DHT22;2877;48.238;11.160;2023-03-21T06:58:47;7.90;99.90
5705;DHT22;2877;48.238;11.160;2023-03-21T07:01:13;7.90;99.90
5705;DHT22;2877;48.238;11.160;2023-03-21T07:03:39;8.00;99.90
5705;DHT22;2877;48.238;11.160;2023-03-21T07:06:07;8.00;99.90
5705;DHT22;2877;48.238;11.160;2023-03-21T07:08:39;8.00;99.90
5705;DHT22;2877;48.238;11.160;2023-03-21T07:11:05;8.00;99.90
5705;DHT22;2877;48.238;11.160;2023-03-21T07:13:32;8.10;99.90
5705;DHT22;2877;48.238;11.160;2023-03-21T07:15:58;8.20;99.90
5705;DHT22;2877;48.238;11.160;2023-03-21T07:18:24;8.30;99.90
5705;DHT22;2877;48.238;11.160;2023-03-21T07:20:50;8.40;99.90
5705;DHT22;2877;48.238;11.160;2023-03-21T07:23:24;8.50;99.90
5705;DHT22;2877;48.238;11.160;2023-03-21T07:25:51;8.50;99.90
5705;DHT22;2877;48.238;11.160;2023-03-21T07:28:17;8.60;99.90
5705;DHT22;2877;48.238;11.160;2023-03-21T07:30:44;8.50;99.90
5705;DHT22;2877;48.238;11.160;2023-03-21T07:33:10;8.60;99.90
5705;DHT22;2877;48.238;11.160;2023-03-21T07:35:36;8.80;99.90
5705;DHT22;2877;48.238;11.160;2023-03-21T07:38:04;8.90;99.90
5705;DHT22;2877;48.238;11.160;2023-03-21T07:40:31;9.00;99.90
5705;DHT22;2877;48.238;11.160;2023-03-21T07:42:57;9.10;99.90
5705;DHT22;2877;48.238;11.160;2023-03-21T07:45:23;9.30;99.90
5705;DHT22;2877;48.238;11.160;2023-03-21T07:47:50;9.40;99.90
5705;DHT22;2877;48.238;11.160;2023-03-21T07:50:16;9.50;99.90
5705;DHT22;2877;48.238;11.160;2023-03-21T07:52:42;9.50;99.90
5705;DHT22;2877;48.238;11.160;2023-03-21T07:55:08;9.50;99.90
5705;DHT22;2877;48.238;11.160;2023-03-21T07:57:33;9.70;99.90
5705;DHT22;2877;48.238;11.160;2023-03-21T07:59:59;9.90;99.90
5705;DHT22;2877;48.238;11.160;2023-03-21T08:02:25;10.10;99.90
5705;DHT22;2877;48.238;11.160;2023-03-21T08:04:51;10.30;99.90
5705;DHT22;2877;48.238;11.160;2023-03-21T08:07:16;10.50;99.90
5705;DHT22;2877;48.238;11.160;2023-03-21T08:09:43;10.60;99.90
5705;DHT22;2877;48.238;11.160;2023-03-21T08:12:09;10.60;99.90
5705;DHT22;2877;48.238;11.160;2023-03-21T08:14:35;10.60;99.90
5705;DHT22;2877;48.238;11.160;2023-03-21T08:17:02;10.70;99.90
5705;DHT22;2877;48.238;11.160;2023-03-21T08:19:28;10.80;99.90
5705;DHT22;2877;48.238;11.160;2023-03-21T08:21:53;10.90;99.90
5705;DHT22;2877;48.238;11.160;2023-03-21T08:24:19;11.00;99.90
5705;DHT22;2877;48.238;11.160;2023-03-21T08:26:45;11.20;99.90
5705;DHT22;2877;48.238;11.160;2023-03-21T08:29:11;11.30;99.90
5705;DHT22;2877;48.238;11.160;2023-03-21T08:31:39;11.40;99.90
5705;DHT22;2877;48.238;11.160;2023-03-21T08:34:05;11.60;99.90
5705;DHT22;2877;48.238;11.160;2023-03-21T08:36:30;11.70;99.90
5705;DHT22;2877;48.238;11.160;2023-03-21T08:38:56;11.80;99.90
5705;DHT22;2877;48.238;11.160;2023-03-21T08:41:33;11.90;99.90
5705;DHT22;2877;48.238;11.160;2023-03-21T08:43:58;12.00;99.90
5705;DHT22;2877;48.238;11.160;2023-03-21T08:46:24;12.10;99.90
5705;DHT22;2877;48.238;11.160;2023-03-21T08:48:50;12.20;99.90
5705;DHT22;2877;48.238;11.160;2023-03-21T08:51:16;12.30;99.90
5705;DHT22;2877;48.238;11.160;2023-03-21T08:53:41;12.30;99.90
5705;DHT22;2877;48.238;11.160;2023-03-21T08:56:09;12.40;99.90
5705;DHT22;2877;48.238;11.160;2023-03-21T08:58:35;12.60;99.90
5705;DHT22;2877;48.238;11.160;2023-03-21T09:01:01;12.60;99.90
5705;DHT22;2877;48.238;11.160;2023-03-21T09:03:26;12.70;99.90
5705;DHT22;2877;48.238;11.160;2023-03-21T09:05:52;12.80;99.90
5705;DHT22;2877;48.238;11.160;2023-03-21T09:08:18;13.00;99.90
5705;DHT22;2877;48.238;11.160;2023-03-21T09:10:49;13.10;99.90
5705;DHT22;2877;48.238;11.160;2023-03-21T09:13:17;13.30;99.90
5705;DHT22;2877;48.238;11.160;2023-03-21T09:15:42;13.30;99.90
5705;DHT22;2877;48.238;11.160;2023-03-21T09:18:09;13.40;99.90
5705;DHT22;2877;48.238;11.160;2023-03-21T09:20:39;13.50;99.90
5705;DHT22;2877;48.238;11.160;2023-03-21T09:23:05;13.70;99.90
5705;DHT22;2877;48.238;11.160;2023-03-21T09:25:31;13.90;99.90
5705;DHT22;2877;48.238;11.160;2023-03-21T09:27:59;14.00;99.90
5705;DHT22;2877;48.238;11.160;2023-03-21T09:30:24;14.10;99.90
5705;DHT22;2877;48.238;11.160;2023-03-21T09:32:50;14.00;99.90
5705;DHT22;2877;48.238;11.160;2023-03-21T09:35:18;13.80;99.90
5705;DHT22;2877;48.238;11.160;2023-03-21T09:37:45;14.00;99.90
5705;DHT22;2877;48.238;11.160;2023-03-21T09:40:20;14.10;99.90
5705;DHT22;2877;48.238;11.160;2023-03-21T09:42:51;14.20;98.70
5705;DHT22;2877;48.238;11.160;2023-03-21T09:45:28;14.00;97.20
5705;DHT22;2877;48.238;11.160;2023-03-21T09:47:59;14.10;99.20
5705;DHT22;2877;48.238;11.160;2023-03-21T09:50:36;14.20;98.40
5705;DHT22;2877;48.238;11.160;2023-03-21T09:53:09;14.40;95.40
5705;DHT22;2877;48.238;11.160;2023-03-21T09:55:38;14.40;95.40
5705;DHT22;2877;48.238;11.160;2023-03-21T09:58:27;14.60;95.80
5705;DHT22;2877;48.238;11.160;2023-03-21T10:01:32;14.80;95.20
5705;DHT22;2877;48.238;11.160;2023-03-21T10:03:59;14.80;92.90
5705;DHT22;2877;48.238;11.160;2023-03-21T10:06:26;14.90;93.70
5705;DHT22;2877;48.238;11.160;2023-03-21T10:08:59;14.80;93.10
5705;DHT22;2877;48.238;11.160;2023-03-21T10:11:31;14.90;93.90
5705;DHT22;2877;48.238;11.160;2023-03-21T10:14:20;15.00;93.70
5705;DHT22;2877;48.238;11.160;2023-03-21T10:16:50;15.20;93.90
5705;DHT22;2877;48.238;11.160;2023-03-21T10:19:18;15.00;91.50
5705;DHT22;2877;48.238;11.160;2023-03-21T10:21:49;14.90;93.50
5705;DHT22;2877;48.238;11.160;2023-03-21T10:24:19;14.20;92.60
5705;DHT22;2877;48.238;11.160;2023-03-21T10:26:46;13.80;93.00
5705;DHT22;2877;48.238;11.160;2023-03-21T10:29:14;13.50;95.20
5705;DHT22;2877;48.238;11.160;2023-03-21T10:31:41;13.80;94.90
5705;DHT22;2877;48.238;11.160;2023-03-21T10:36:42;14.30;92.80
5705;DHT22;2877;48.238;11.160;2023-03-21T10:39:20;14.40;92.80
5705;DHT22;2877;48.238;11.160;2023-03-21T10:41:47;14.50;93.10
5705;DHT22;2877;48.238;11.160;2023-03-21T10:44:16;14.70;92.80
5705;DHT22;2877;48.238;11.160;2023-03-21T10:46:51;15.00;92.10
5705;DHT22;2877;48.238;11.160;2023-03-21T10:49:17;15.00;92.30
5705;DHT22;2877;48.238;11.160;2023-03-21T10:51:44;15.00;93.20
5705;DHT22;2877;48.238;11.160;2023-03-21T10:54:15;15.10;92.10
5705;DHT22;2877;48.238;11.160;2023-03-21T10:56:55;15.20;91.60
5705;DHT22;2877;48.238;11.160;2023-03-21T10:59:23;15.40;90.80
5705;DHT22;2877;48.238;11.160;2023-03-21T11:01:51;15.50;90.60
5705;DHT22;2877;48.238;11.160;2023-03-21T11:04:19;15.60;90.40
5705;DHT22;2877;48.238;11.160;2023-03-21T11:06:55;16.00;90.20
5705;DHT22;2877;48.238;11.160;2023-03-21T11:09:23;16.30;89.90
5705;DHT22;2877;48.238;11.160;2023-03-21T11:12:03;16.50;90.00
5705;DHT22;2877;48.238;11.160;2023-03-21T11:14:37;16.70;88.60
5705;DHT22;2877;48.238;11.160;2023-03-21T11:17:33;17.00;89.60
5705;DHT22;2877;48.238;11.160;2023-03-21T11:20:03;16.40;86.80
5705;DHT22;2877;48.238;11.160;2023-03-21T11:22:39;16.20;86.00
5705;DHT22;2877;48.238;11.160;2023-03-21T11:25:09;15.90;89.00
5705;DHT22;2877;48.238;11.160;2023-03-21T11:27:48;16.20;87.90
5705;DHT22;2877;48.238;11.160;2023-03-21T11:30:20;16.30;86.30
5705;DHT22;2877;48.238;11.160;2023-03-21T11:32:50;16.40;87.20
5705;DHT22;2877;48.238;11.160;2023-03-21T11:35:21;16.40;86.10
5705;DHT22;2877;48.238;11.160;2023-03-21T11:37:53;16.50;86.90
5705;DHT22;2877;48.238;11.160;2023-03-21T11:42:55;16.80;84.20
5705;DHT22;2877;48.238;11.160;2023-03-21T11:47:56;16.50;86.20
5705;DHT22;2877;48.238;11.160;2023-03-21T11:50:40;16.20;86.20
5705;DHT22;2877;48.238;11.160;2023-03-21T11:56:07;15.30;88.10
5705;DHT22;2877;48.238;11.160;2023-03-21T12:06:42;16.60;86.00
5705;DHT22;2877;48.238;11.160;2023-03-21T12:12:00;17.00;87.70
5705;DHT22;2877;48.238;11.160;2023-03-21T12:17:49;18.10;83.80
5705;DHT22;2877;48.238;11.160;2023-03-21T12:20:36;17.50;79.20
5705;DHT22;2877;48.238;11.160;2023-03-21T12:34:32;16.60;81.60
5705;DHT22;2877;48.238;11.160;2023-03-21T12:37:04;16.70;81.40
5705;DHT22;2877;48.238;11.160;2023-03-21T12:39:38;17.40;81.60
5705;DHT22;2877;48.238;11.160;2023-03-21T12:45:24;17.00;79.00
5705;DHT22;2877;48.238;11.160;2023-03-21T12:47:55;16.30;82.20
5705;DHT22;2877;48.238;11.160;2023-03-21T12:50:30;16.00;83.90
5705;DHT22;2877;48.238;11.160;2023-03-21T12:55:52;17.20;81.00
5705;DHT22;2877;48.238;11.160;2023-03-21T12:58:21;17.60;78.30
5705;DHT22;2877;48.238;11.160;2023-03-21T13:00:59;17.20;76.40
5705;DHT22;2877;48.238;11.160;2023-03-21T13:03:29;17.30;77.30
5705;DHT22;2877;48.238;11.160;2023-03-21T13:06:01;17.50;79.60
5705;DHT22;2877;48.238;11.160;2023-03-21T13:08:57;17.50;77.30
5705;DHT22;2877;48.238;11.160;2023-03-21T13:11:28;17.00;76.30
5705;DHT22;2877;48.238;11.160;2023-03-21T13:14:05;17.20;78.60
5705;DHT22;2877;48.238;11.160;2023-03-21T13:16:38;17.60;79.50
5705;DHT22;2877;48.238;11.160;2023-03-21T13:19:27;17.50;76.40
5705;DHT22;2877;48.238;11.160;2023-03-21T13:22:12;16.90;77.50
5705;DHT22;2877;48.238;11.160;2023-03-21T13:24:47;17.30;82.00
5705;DHT22;2877;48.238;11.160;2023-03-21T13:27:33;18.60;77.30
5705;DHT22;2877;48.238;11.160;2023-03-21T13:30:03;19.80;73.50
5705;DHT22;2877;48.238;11.160;2023-03-21T13:32:43;20.80;70.80
5705;DHT22;2877;48.238;11.160;2023-03-21T13:35:18;20.90;67.60
5705;DHT22;2877;48.238;11.160;2023-03-21T13:38:14;20.80;66.30
5705;DHT22;2877;48.238;11.160;2023-03-21T13:43:39;21.00;68.80
5705;DHT22;2877;48.238;11.160;2023-03-21T13:46:12;21.30;65.10
5705;DHT22;2877;48.238;11.160;2023-03-21T13:48:44;20.80;62.80
5705;DHT22;2877;48.238;11.160;2023-03-21T13:56:52;20.80;66.40
5705;DHT22;2877;48.238;11.160;2023-03-21T13:59:38;20.60;65.10
5705;DHT22;2877;48.238;11.160;2023-03-21T14:05:39;17.60;67.70
5705;DHT22;2877;48.238;11.160;2023-03-21T14:07:42;17.00;71.80
5705;DHT22;2877;48.238;11.160;2023-03-21T14:10:19;16.70;71.10
5705;DHT22;2877;48.238;11.160;2023-03-21T14:12:46;16.40;72.60
5705;DHT22;2877;48.238;11.160;2023-03-21T14:17:52;16.00;72.70
5705;DHT22;2877;48.238;11.160;2023-03-21T14:20:22;16.40;75.40
5705;DHT22;2877;48.238;11.160;2023-03-21T14:22:48;16.60;73.80
5705;DHT22;2877;48.238;11.160;2023-03-21T14:25:17;16.60;73.40
5705;DHT22;2877;48.238;11.160;2023-03-21T14:27:50;16.40;71.00
5705;DHT22;2877;48.238;11.160;2023-03-21T14:30:24;16.00;73.80
5705;DHT22;2877;48.238;11.160;2023-03-21T14:32:53;15.80;74.70
5705;DHT22;2877;48.238;11.160;2023-03-21T14:35:21;15.60;74.50
5705;DHT22;2877;48.238;11.160;2023-03-21T14:37:46;15.50;75.60
5705;DHT22;2877;48.238;11.160;2023-03-21T14:40:24;15.70;78.60
5705;DHT22;2877;48.238;11.160;2023-03-21T14:42:51;16.00;78.90
5705;DHT22;2877;48.238;11.160;2023-03-21T14:45:18;16.30;80.10
5705;DHT22;2877;48.238;11.160;2023-03-21T14:47:55;16.40;76.80
5705;DHT22;2877;48.238;11.160;2023-03-21T14:50:27;16.30;77.80
5705;DHT22;2877;48.238;11.160;2023-03-21T14:52:55;16.00;75.70
5705;DHT22;2877;48.238;11.160;2023-03-21T14:55:21;15.60;76.70
5705;DHT22;2877;48.238;11.160;2023-03-21T14:57:47;15.60;78.60
5705;DHT22;2877;48.238;11.160;2023-03-21T15:00:24;15.80;79.60
5705;DHT22;2877;48.238;11.160;2023-03-21T15:02:51;16.00;78.00
5705;DHT22;2877;48.238;11.160;2023-03-21T15:05:24;16.00;77.60
5705;DHT22;2877;48.238;11.160;2023-03-21T15:07:57;16.10;77.20
5705;DHT22;2877;48.238;11.160;2023-03-21T15:10:24;15.80;77.20
5705;DHT22;2877;48.238;11.160;2023-03-21T15:12:56;15.70;80.60
5705;DHT22;2877;48.238;11.160;2023-03-21T15:15:23;15.80;80.40
5705;DHT22;2877;48.238;11.160;2023-03-21T15:17:49;16.00;80.40
5705;DHT22;2877;48.238;11.160;2023-03-21T15:20:18;16.00;81.10
5705;DHT22;2877;48.238;11.160;2023-03-21T15:22:51;16.10;78.30
5705;DHT22;2877;48.238;11.160;2023-03-21T15:25:25;15.70;80.50
5705;DHT22;2877;48.238;11.160;2023-03-21T15:27:52;15.60;79.80
5705;DHT22;2877;48.238;11.160;2023-03-21T15:30:23;15.60;81.80
5705;DHT22;2877;48.238;11.160;2023-03-21T15:32:50;15.70;81.00
5705;DHT22;2877;48.238;11.160;2023-03-21T15:35:20;15.80;81.80
5705;DHT22;2877;48.238;11.160;2023-03-21T15:37:56;15.70;80.30
5705;DHT22;2877;48.238;11.160;2023-03-21T15:40:27;15.50;80.70
5705;DHT22;2877;48.238;11.160;2023-03-21T15:43:16;15.30;83.70
5705;DHT22;2877;48.238;11.160;2023-03-21T15:45:53;15.10;82.80
5705;DHT22;2877;48.238;11.160;2023-03-21T15:48:27;14.90;80.60
5705;DHT22;2877;48.238;11.160;2023-03-21T15:51:01;14.80;81.30
5705;DHT22;2877;48.238;11.160;2023-03-21T15:53:31;14.70;81.70
5705;DHT22;2877;48.238;11.160;2023-03-21T15:55:58;14.70;81.70
5705;DHT22;2877;48.238;11.160;2023-03-21T15:58:39;14.70;82.30
5705;DHT22;2877;48.238;11.160;2023-03-21T16:01:11;14.80;83.00
5705;DHT22;2877;48.238;11.160;2023-03-21T16:03:42;14.70;82.00
5705;DHT22;2877;48.238;11.160;2023-03-21T16:08:42;14.40;82.90
5705;DHT22;2877;48.238;11.160;2023-03-21T16:13:42;14.40;83.80
5705;DHT22;2877;48.238;11.160;2023-03-21T16:16:18;14.40;83.30
5705;DHT22;2877;48.238;11.160;2023-03-21T16:18:44;14.30;84.80
5705;DHT22;2877;48.238;11.160;2023-03-21T16:21:15;14.40;86.40
5705;DHT22;2877;48.238;11.160;2023-03-21T16:23:41;14.40;86.50
5705;DHT22;2877;48.238;11.160;2023-03-21T16:26:15;14.40;85.40
5705;DHT22;2877;48.238;11.160;2023-03-21T16:28:42;14.30;87.60
5705;DHT22;2877;48.238;11.160;2023-03-21T16:31:16;14.30;87.10
5705;DHT22;2877;48.238;11.160;2023-03-21T16:33:43;14.20;86.40
5705;DHT22;2877;48.238;11.160;2023-03-21T16:36:12;14.10;86.50
5705;DHT22;2877;48.238;11.160;2023-03-21T16:38:39;14.00;87.20
5705;DHT22;2877;48.238;11.160;2023-03-21T16:41:10;14.00;88.00
5705;DHT22;2877;48.238;11.160;2023-03-21T16:43:35;14.00;89.80
5705;DHT22;2877;48.238;11.160;2023-03-21T16:46:04;13.90;89.80
5705;DHT22;2877;48.238;11.160;2023-03-21T16:48:29;13.90;90.10
5705;DHT22;2877;48.238;11.160;2023-03-21T16:50:55;13.90;90.10
5705;DHT22;2877;48.238;11.160;2023-03-21T16:53:20;13.80;90.50
5705;DHT22;2877;48.238;11.160;2023-03-21T16:55:46;13.70;90.40
5705;DHT22;2877;48.238;11.160;2023-03-21T16:58:14;13.70;90.80
5705;DHT22;2877;48.238;11.160;2023-03-21T17:00:40;13.60;91.10
5705;DHT22;2877;48.238;11.160;2023-03-21T17:03:14;13.50;91.10
5705;DHT22;2877;48.238;11.160;2023-03-21T17:05:43;13.40;91.20
5705;DHT22;2877;48.238;11.160;2023-03-21T17:08:17;13.30;91.00
5705;DHT22;2877;48.238;11.160;2023-03-21T17:10:44;13.30;90.80
5705;DHT22;2877;48.238;11.160;2023-03-21T17:13:10;13.20;91.20
5705;DHT22;2877;48.238;11.160;2023-03-21T17:15:36;13.20;92.00
5705;DHT22;2877;48.238;11.160;2023-03-21T17:18:03;13.00;92.50
5705;DHT22;2877;48.238;11.160;2023-03-21T17:20:30;12.90;93.30
5705;DHT22;2877;48.238;11.160;2023-03-21T17:22:56;12.90;94.30
5705;DHT22;2877;48.238;11.160;2023-03-21T17:25:22;12.80;95.00
5705;DHT22;2877;48.238;11.160;2023-03-21T17:27:48;12.70;95.90
5705;DHT22;2877;48.238;11.160;2023-03-21T17:30:22;12.70;96.10
5705;DHT22;2877;48.238;11.160;2023-03-21T17:32:49;12.60;97.50
5705;DHT22;2877;48.238;11.160;2023-03-21T17:35:15;12.60;98.50
5705;DHT22;2877;48.238;11.160;2023-03-21T17:37:41;12.50;99.40